sensor_id;sensor_type;location;lat;lon;timestamp;temperature;humidity
22224;DHT22;11281;52.194;21.006;2023-07-31T00:00:34;17.00;99.90
22224;DHT22;11281;52.194;21.006;2023-07-31T00:04:56;17.00;99.90
22224;DHT22;11281;52.194;21.006;2023-07-31T00:09:18;16.90;99.90
22224;DHT22;11281;52.194;21.006;2023-07-31T00:13:39;16.90;99.90
22224;DHT22;11281;52.194;21.006;2023-07-31T00:18:01;16.80;99.90
22224;DHT22;11281;52.194;21.006;2023-07-31T00:22:23;16.70;99.90
22224;DHT22;11281;52.194;21.006;2023-07-31T00:26:44;16.60;99.90
22224;DHT22;11281;52.194;21.006;2023-07-31T00:31:06;16.60;99.90
22224;DHT22;11281;52.194;21.006;2023-07-31T00:35:28;16.70;99.90
22224;DHT22;11281;52.194;21.006;2023-07-31T00:39:50;16.60;99.90
22224;DHT22;11281;52.194;21.006;2023-07-31T00:44:11;16.50;99.90
22224;DHT22;11281;52.194;21.006;2023-07-31T00:48:34;16.40;99.90
22224;DHT22;11281;52.194;21.006;2023-07-31T00:52:56;16.50;99.90
22224;DHT22;11281;52.194;21.006;2023-07-31T00:57:18;16.40;99.90
22224;DHT22;11281;52.194;21.006;2023-07-31T01:01:40;16.50;99.90
22224;DHT22;11281;52.194;21.006;2023-07-31T01:06:31;16.50;99.90
22224;DHT22;11281;52.194;21.006;2023-07-31T01:11:10;16.60;99.90
22224;DHT22;11281;52.194;21.006;2023-07-31T01:15:37;16.60;99.90
22224;DHT22;11281;52.194;21.006;2023-07-31T01:20:02;16.60;99.90
22224;DHT22;11281;52.194;21.006;2023-07-31T01:29:49;16.60;99.90
22224;DHT22;11281;52.194;21.006;2023-07-31T01:34:21;16.50;99.90
22224;DHT22;11281;52.194;21.006;2023-07-31T01:38:43;16.40;99.90
22224;DHT22;11281;52.194;21.006;2023-07-31T01:43:05;16.30;99.90
22224;DHT22;11281;52.194;21.006;2023-07-31T01:47:26;16.20;99.90
22224;DHT22;11281;52.194;21.006;2023-07-31T01:51:48;16.10;99.90
22224;DHT22;11281;52.194;21.006;2023-07-31T01:56:10;16.10;99.90
22224;DHT22;11281;52.194;21.006;2023-07-31T02:00:32;16.00;99.90
22224;DHT22;11281;52.194;21.006;2023-07-31T02:04:53;15.90;99.90
22224;DHT22;11281;52.194;21.006;2023-07-31T02:09:15;15.90;99.90
22224;DHT22;11281;52.194;21.006;2023-07-31T02:13:37;15.90;99.90
22224;DHT22;11281;52.194;21.006;2023-07-31T02:17:58;15.80;99.90
22224;DHT22;11281;52.194;21.006;2023-07-31T02:22:20;15.80;99.90
22224;DHT22;11281;52.194;21.006;2023-07-31T02:26:42;15.80;99.90
22224;DHT22;11281;52.194;21.006;2023-07-31T02:31:04;15.70;99.90
22224;DHT22;11281;52.194;21.006;2023-07-31T02:35:25;15.70;99.90
22224;DHT22;11281;52.194;21.006;2023-07-31T02:39:47;15.70;99.90
22224;DHT22;11281;52.194;21.006;2023-07-31T02:44:09;15.60;99.90
22224;DHT22;11281;52.194;21.006;2023-07-31T02:48:31;15.50;99.90
22224;DHT22;11281;52.194;21.006;2023-07-31T02:52:53;15.50;99.90
22224;DHT22;11281;52.194;21.006;2023-07-31T02:57:15;15.50;99.90
22224;DHT22;11281;52.194;21.006;2023-07-31T03:01:37;15.50;99.90
22224;DHT22;11281;52.194;21.006;2023-07-31T03:05:59;15.50;99.90
22224;DHT22;11281;52.194;21.006;2023-07-31T03:10:21;15.60;99.90
22224;DHT22;11281;52.194;21.006;2023-07-31T03:14:43;15.70;99.90
22224;DHT22;11281;52.194;21.006;2023-07-31T03:19:04;15.80;99.90
22224;DHT22;11281;52.194;21.006;2023-07-31T03:23:26;15.80;99.90
22224;DHT22;11281;52.194;21.006;2023-07-31T03:27:48;15.90;99.90
22224;DHT22;11281;52.194;21.006;2023-07-31T03:32:09;16.00;99.90
22224;DHT22;11281;52.194;21.006;2023-07-31T03:36:31;16.10;99.90
22224;DHT22;11281;52.194;21.006;2023-07-31T03:40:53;16.10;99.90
22224;DHT22;11281;52.194;21.006;2023-07-31T03:45:15;16.10;99.90
22224;DHT22;11281;52.194;21.006;2023-07-31T03:49:36;16.10;99.90
22224;DHT22;11281;52.194;21.006;2023-07-31T03:53:58;16.10;99.90
22224;DHT22;11281;52.194;21.006;2023-07-31T03:58:20;16.20;99.90
22224;DHT22;11281;52.194;21.006;2023-07-31T04:02:41;16.20;99.90
22224;DHT22;11281;52.194;21.006;2023-07-31T04:07:03;16.30;99.90
22224;DHT22;11281;52.194;21.006;2023-07-31T04:11:25;16.30;99.90
22224;DHT22;11281;52.194;21.006;2023-07-31T04:15:50;16.30;99.90
22224;DHT22;11281;52.194;21.006;2023-07-31T04:20:12;16.40;99.90
22224;DHT22;11281;52.194;21.006;2023-07-31T04:24:33;16.50;99.90
22224;DHT22;11281;52.194;21.006;2023-07-31T04:28:55;16.50;99.90
22224;DHT22;11281;52.194;21.006;2023-07-31T04:33:17;16.60;99.90
22224;DHT22;11281;52.194;21.006;2023-07-31T04:37:39;16.70;99.90
22224;DHT22;11281;52.194;21.006;2023-07-31T04:42:01;16.80;99.90
22224;DHT22;11281;52.194;21.006;2023-07-31T04:46:23;16.80;99.90
22224;DHT22;11281;52.194;21.006;2023-07-31T04:50:44;16.80;99.90
22224;DHT22;11281;52.194;21.006;2023-07-31T04:55:06;16.80;99.90
22224;DHT22;11281;52.194;21.006;2023-07-31T04:59:28;16.80;99.90
22224;DHT22;11281;52.194;21.006;2023-07-31T05:03:50;16.90;99.90
22224;DHT22;11281;52.194;21.006;2023-07-31T05:08:11;17.10;99.90
22224;DHT22;11281;52.194;21.006;2023-07-31T05:12:33;17.30;99.90
22224;DHT22;11281;52.194;21.006;2023-07-31T05:16:55;17.40;99.90
22224;DHT22;11281;52.194;21.006;2023-07-31T05:21:17;17.40;99.90
22224;DHT22;11281;52.194;21.006;2023-07-31T05:25:38;17.40;99.90
22224;DHT22;11281;52.194;21.006;2023-07-31T05:30:00;17.50;99.90
22224;DHT22;11281;52.194;21.006;2023-07-31T05:34:22;17.50;99.90
22224;DHT22;11281;52.194;21.006;2023-07-31T05:38:44;17.60;99.90
22224;DHT22;11281;52.194;21.006;2023-07-31T05:43:05;17.80;99.90
22224;DHT22;11281;52.194;21.006;2023-07-31T05:47:29;18.00;99.90
22224;DHT22;11281;52.194;21.006;2023-07-31T05:51:51;18.00;99.90
22224;DHT22;11281;52.194;21.006;2023-07-31T05:56:12;18.10;99.90
22224;DHT22;11281;52.194;21.006;2023-07-31T06:00:34;17.90;99.90
22224;DHT22;11281;52.194;21.006;2023-07-31T06:04:56;17.90;99.90
22224;DHT22;11281;52.194;21.006;2023-07-31T06:09:18;17.90;99.90
22224;DHT22;11281;52.194;21.006;2023-07-31T06:13:39;17.90;99.90
22224;DHT22;11281;52.194;21.006;2023-07-31T06:18:01;18.20;99.90
22224;DHT22;11281;52.194;21.006;2023-07-31T06:22:24;18.10;99.90
22224;DHT22;11281;52.194;21.006;2023-07-31T06:26:46;18.00;99.90
22224;DHT22;11281;52.194;21.006;2023-07-31T06:31:07;18.10;99.90
22224;DHT22;11281;52.194;21.006;2023-07-31T06:35:29;18.10;99.90
22224;DHT22;11281;52.194;21.006;2023-07-31T06:39:51;18.10;99.90
22224;DHT22;11281;52.194;21.006;2023-07-31T06:44:13;18.10;99.90
22224;DHT22;11281;52.194;21.006;2023-07-31T06:48:34;18.00;99.90
22224;DHT22;11281;52.194;21.006;2023-07-31T06:52:58;17.90;99.90
22224;DHT22;11281;52.194;21.006;2023-07-31T06:57:20;18.10;99.90
22224;DHT22;11281;52.194;21.006;2023-07-31T07:01:41;18.30;99.90
22224;DHT22;11281;52.194;21.006;2023-07-31T07:06:03;18.50;99.90
22224;DHT22;11281;52.194;21.006;2023-07-31T07:10:25;18.80;99.90
22224;DHT22;11281;52.194;21.006;2023-07-31T07:14:47;19.40;99.90
22224;DHT22;11281;52.194;21.006;2023-07-31T07:19:09;20.00;99.90
22224;DHT22;11281;52.194;21.006;2023-07-31T07:23:30;20.20;99.90
22224;DHT22;11281;52.194;21.006;2023-07-31T07:27:52;20.10;99.90
22224;DHT22;11281;52.194;21.006;2023-07-31T07:32:14;20.50;99.90
22224;DHT22;11281;52.194;21.006;2023-07-31T07:36:35;20.60;99.90
22224;DHT22;11281;52.194;21.006;2023-07-31T07:40:58;20.90;99.90
22224;DHT22;11281;52.194;21.006;2023-07-31T07:45:20;20.60;99.90
22224;DHT22;11281;52.194;21.006;2023-07-31T07:49:42;20.80;99.90
22224;DHT22;11281;52.194;21.006;2023-07-31T07:54:03;20.60;99.90
22224;DHT22;11281;52.194;21.006;2023-07-31T07:58:25;20.70;99.90
22224;DHT22;11281;52.194;21.006;2023-07-31T08:02:47;20.60;99.90
22224;DHT22;11281;52.194;21.006;2023-07-31T08:07:11;20.60;99.90
22224;DHT22;11281;52.194;21.006;2023-07-31T08:11:33;20.60;99.90
22224;DHT22;11281;52.194;21.006;2023-07-31T08:15:55;20.80;99.90
22224;DHT22;11281;52.194;21.006;2023-07-31T08:20:17;21.20;99.90
22224;DHT22;11281;52.194;21.006;2023-07-31T08:24:39;21.30;99.90
22224;DHT22;11281;52.194;21.006;2023-07-31T08:29:00;21.40;99.90
22224;DHT22;11281;52.194;21.006;2023-07-31T08:33:22;21.60;99.90
22224;DHT22;11281;52.194;21.006;2023-07-31T08:37:44;22.00;99.90
22224;DHT22;11281;52.194;21.006;2023-07-31T08:42:08;21.60;99.90
22224;DHT22;11281;52.194;21.006;2023-07-31T08:46:31;21.50;99.90
22224;DHT22;11281;52.194;21.006;2023-07-31T08:50:54;21.40;99.90
22224;DHT22;11281;52.194;21.006;2023-07-31T08:55:15;21.60;99.90
22224;DHT22;11281;52.194;21.006;2023-07-31T08:59:38;21.60;99.90
22224;DHT22;11281;52.194;21.006;2023-07-31T09:04:01;21.70;99.90
22224;DHT22;11281;52.194;21.006;2023-07-31T09:08:23;21.90;99.90
22224;DHT22;11281;52.194;21.006;2023-07-31T09:12:50;21.80;99.90
22224;DHT22;11281;52.194;21.006;2023-07-31T09:17:12;22.20;99.90
22224;DHT22;11281;52.194;21.006;2023-07-31T09:21:47;22.30;99.90
22224;DHT22;11281;52.194;21.006;2023-07-31T09:26:10;22.30;99.90
22224;DHT22;11281;52.194;21.006;2023-07-31T09:30:47;22.50;99.90
22224;DHT22;11281;52.194;21.006;2023-07-31T09:39:47;22.40;99.90
22224;DHT22;11281;52.194;21.006;2023-07-31T09:44:15;22.50;99.90
22224;DHT22;11281;52.194;21.006;2023-07-31T09:48:39;22.30;99.90
22224;DHT22;11281;52.194;21.006;2023-07-31T09:53:00;22.20;99.90
22224;DHT22;11281;52.194;21.006;2023-07-31T09:57:22;22.00;99.90
22224;DHT22;11281;52.194;21.006;2023-07-31T10:01:46;22.20;99.90
22224;DHT22;11281;52.194;21.006;2023-07-31T10:06:09;22.80;99.90
22224;DHT22;11281;52.194;21.006;2023-07-31T10:10:31;22.50;99.90
22224;DHT22;11281;52.194;21.006;2023-07-31T10:14:54;22.60;99.90
22224;DHT22;11281;52.194;21.006;2023-07-31T10:19:18;22.60;99.90
22224;DHT22;11281;52.194;21.006;2023-07-31T10:23:41;22.60;99.90
22224;DHT22;11281;52.194;21.006;2023-07-31T10:28:03;23.00;99.90
22224;DHT22;11281;52.194;21.006;2023-07-31T10:32:26;22.90;99.90
22224;DHT22;11281;52.194;21.006;2023-07-31T10:36:48;23.30;99.90
22224;DHT22;11281;52.194;21.006;2023-07-31T10:41:10;23.00;99.90
22224;DHT22;11281;52.194;21.006;2023-07-31T10:50:21;22.90;99.90
22224;DHT22;11281;52.194;21.006;2023-07-31T10:54:45;22.50;99.90
22224;DHT22;11281;52.194;21.006;2023-07-31T10:59:07;22.70;99.90
22224;DHT22;11281;52.194;21.006;2023-07-31T11:03:49;22.60;99.90
22224;DHT22;11281;52.194;21.006;2023-07-31T11:08:21;22.40;99.90
22224;DHT22;11281;52.194;21.006;2023-07-31T11:12:47;22.70;99.90
22224;DHT22;11281;52.194;21.006;2023-07-31T11:17:09;22.60;98.70
22224;DHT22;11281;52.194;21.006;2023-07-31T11:21:31;22.60;99.90
22224;DHT22;11281;52.194;21.006;2023-07-31T11:25:53;22.50;98.30
22224;DHT22;11281;52.194;21.006;2023-07-31T11:30:20;22.50;99.90
22224;DHT22;11281;52.194;21.006;2023-07-31T11:34:55;22.40;99.10
22224;DHT22;11281;52.194;21.006;2023-07-31T11:39:16;22.60;99.90
22224;DHT22;11281;52.194;21.006;2023-07-31T11:43:38;22.70;99.90
22224;DHT22;11281;52.194;21.006;2023-07-31T11:48:00;22.60;99.90
22224;DHT22;11281;52.194;21.006;2023-07-31T11:52:22;22.60;99.80
22224;DHT22;11281;52.194;21.006;2023-07-31T11:56:45;22.60;99.90
22224;DHT22;11281;52.194;21.006;2023-07-31T12:01:07;22.80;99.90
22224;DHT22;11281;52.194;21.006;2023-07-31T12:05:30;22.40;99.90
22224;DHT22;11281;52.194;21.006;2023-07-31T12:09:55;22.70;99.90
22224;DHT22;11281;52.194;21.006;2023-07-31T12:14:27;22.70;99.90
22224;DHT22;11281;52.194;21.006;2023-07-31T12:18:52;22.90;99.90
22224;DHT22;11281;52.194;21.006;2023-07-31T12:23:16;22.80;99.90
22224;DHT22;11281;52.194;21.006;2023-07-31T12:27:38;22.70;99.90
22224;DHT22;11281;52.194;21.006;2023-07-31T12:32:00;22.30;99.90
22224;DHT22;11281;52.194;21.006;2023-07-31T12:36:23;22.10;99.90
22224;DHT22;11281;52.194;21.006;2023-07-31T12:40:45;22.10;99.90
22224;DHT22;11281;52.194;21.006;2023-07-31T12:45:07;22.20;99.90
22224;DHT22;11281;52.194;21.006;2023-07-31T12:49:29;22.30;99.90
22224;DHT22;11281;52.194;21.006;2023-07-31T12:53:50;22.40;99.90
22224;DHT22;11281;52.194;21.006;2023-07-31T12:58:12;22.50;99.90
22224;DHT22;11281;52.194;21.006;2023-07-31T13:02:34;22.50;99.90
22224;DHT22;11281;52.194;21.006;2023-07-31T13:06:56;22.80;99.90
22224;DHT22;11281;52.194;21.006;2023-07-31T13:11:17;23.10;99.90
22224;DHT22;11281;52.194;21.006;2023-07-31T13:15:39;22.80;99.90
22224;DHT22;11281;52.194;21.006;2023-07-31T13:20:01;23.00;99.90
22224;DHT22;11281;52.194;21.006;2023-07-31T13:24:23;23.10;98.80
22224;DHT22;11281;52.194;21.006;2023-07-31T13:28:45;22.90;99.90
22224;DHT22;11281;52.194;21.006;2023-07-31T13:33:06;22.70;99.90
22224;DHT22;11281;52.194;21.006;2023-07-31T13:37:28;22.90;98.80
22224;DHT22;11281;52.194;21.006;2023-07-31T13:41:50;22.90;97.60
22224;DHT22;11281;52.194;21.006;2023-07-31T13:46:11;22.70;98.10
22224;DHT22;11281;52.194;21.006;2023-07-31T13:50:33;22.50;99.90
22224;DHT22;11281;52.194;21.006;2023-07-31T13:54:55;22.60;99.90
22224;DHT22;11281;52.194;21.006;2023-07-31T13:59:16;22.70;99.90
22224;DHT22;11281;52.194;21.006;2023-07-31T14:03:38;22.80;99.90
22224;DHT22;11281;52.194;21.006;2023-07-31T14:08:00;22.70;99.90
22224;DHT22;11281;52.194;21.006;2023-07-31T14:12:22;22.60;99.90
22224;DHT22;11281;52.194;21.006;2023-07-31T14:16:43;22.60;99.90
22224;DHT22;11281;52.194;21.006;2023-07-31T14:21:05;22.30;99.90
22224;DHT22;11281;52.194;21.006;2023-07-31T14:25:27;22.30;99.90
22224;DHT22;11281;52.194;21.006;2023-07-31T14:29:49;22.30;99.90
22224;DHT22;11281;52.194;21.006;2023-07-31T14:34:10;22.20;99.90
22224;DHT22;11281;52.194;21.006;2023-07-31T14:38:32;22.10;99.90
22224;DHT22;11281;52.194;21.006;2023-07-31T14:42:54;22.10;99.90
22224;DHT22;11281;52.194;21.006;2023-07-31T14:47:16;22.20;99.90
22224;DHT22;11281;52.194;21.006;2023-07-31T14:51:38;22.40;99.90
22224;DHT22;11281;52.194;21.006;2023-07-31T14:55:59;22.50;99.90
22224;DHT22;11281;52.194;21.006;2023-07-31T15:00:21;22.90;99.90
22224;DHT22;11281;52.194;21.006;2023-07-31T15:04:43;23.00;99.90
22224;DHT22;11281;52.194;21.006;2023-07-31T15:09:05;22.80;99.90
22224;DHT22;11281;52.194;21.006;2023-07-31T15:13:27;22.50;99.90
22224;DHT22;11281;52.194;21.006;2023-07-31T15:17:48;22.30;99.90
22224;DHT22;11281;52.194;21.006;2023-07-31T15:22:10;22.10;99.90
22224;DHT22;11281;52.194;21.006;2023-07-31T15:26:32;22.00;99.90
22224;DHT22;11281;52.194;21.006;2023-07-31T15:30:54;21.80;99.90
22224;DHT22;11281;52.194;21.006;2023-07-31T15:35:16;21.70;99.90
22224;DHT22;11281;52.194;21.006;2023-07-31T15:39:37;21.70;99.90
22224;DHT22;11281;52.194;21.006;2023-07-31T15:43:59;21.60;99.90
22224;DHT22;11281;52.194;21.006;2023-07-31T15:48:21;21.60;99.90
22224;DHT22;11281;52.194;21.006;2023-07-31T15:52:42;21.50;99.90
22224;DHT22;11281;52.194;21.006;2023-07-31T15:57:04;21.30;99.90
22224;DHT22;11281;52.194;21.006;2023-07-31T16:01:27;21.30;99.90
22224;DHT22;11281;52.194;21.006;2023-07-31T16:05:49;21.20;99.90
22224;DHT22;11281;52.194;21.006;2023-07-31T16:10:10;21.20;99.90
22224;DHT22;11281;52.194;21.006;2023-07-31T16:14:32;21.20;99.90
22224;DHT22;11281;52.194;21.006;2023-07-31T16:18:54;21.20;99.90
22224;DHT22;11281;52.194;21.006;2023-07-31T16:23:15;21.30;99.90
22224;DHT22;11281;52.194;21.006;2023-07-31T16:27:37;21.50;99.90
22224;DHT22;11281;52.194;21.006;2023-07-31T16:31:59;21.60;99.90
22224;DHT22;11281;52.194;21.006;2023-07-31T16:36:21;21.60;99.90
22224;DHT22;11281;52.194;21.006;2023-07-31T16:40:43;21.50;99.90
22224;DHT22;11281;52.194;21.006;2023-07-31T16:45:06;21.30;99.90
22224;DHT22;11281;52.194;21.006;2023-07-31T16:49:27;21.10;99.90
22224;DHT22;11281;52.194;21.006;2023-07-31T16:53:49;20.90;99.90
22224;DHT22;11281;52.194;21.006;2023-07-31T16:58:11;20.70;99.90
22224;DHT22;11281;52.194;21.006;2023-07-31T17:02:33;20.60;99.90
22224;DHT22;11281;52.194;21.006;2023-07-31T17:06:54;20.40;99.90
22224;DHT22;11281;52.194;21.006;2023-07-31T17:11:16;20.40;99.90
22224;DHT22;11281;52.194;21.006;2023-07-31T17:15:38;20.30;99.90
22224;DHT22;11281;52.194;21.006;2023-07-31T17:19:59;20.20;99.90
22224;DHT22;11281;52.194;21.006;2023-07-31T17:24:21;20.10;99.90
22224;DHT22;11281;52.194;21.006;2023-07-31T17:28:43;20.00;99.90
22224;DHT22;11281;52.194;21.006;2023-07-31T17:33:04;19.90;99.90
22224;DHT22;11281;52.194;21.006;2023-07-31T17:37:26;19.80;99.90
22224;DHT22;11281;52.194;21.006;2023-07-31T17:41:48;19.80;99.90
22224;DHT22;11281;52.194;21.006;2023-07-31T17:46:10;19.80;99.90
22224;DHT22;11281;52.194;21.006;2023-07-31T17:50:32;19.90;99.90
22224;DHT22;11281;52.194;21.006;2023-07-31T17:54:53;19.80;99.90
22224;DHT22;11281;52.194;21.006;2023-07-31T17:59:15;19.90;99.90
22224;DHT22;11281;52.194;21.006;2023-07-31T18:03:37;19.80;99.90
22224;DHT22;11281;52.194;21.006;2023-07-31T18:07:58;19.80;99.90
22224;DHT22;11281;52.194;21.006;2023-07-31T18:12:20;19.80;99.90
22224;DHT22;11281;52.194;21.006;2023-07-31T18:16:42;19.80;99.90
22224;DHT22;11281;52.194;21.006;2023-07-31T18:21:04;19.90;99.90
22224;DHT22;11281;52.194;21.006;2023-07-31T18:25:28;19.90;99.90
22224;DHT22;11281;52.194;21.006;2023-07-31T18:29:49;19.70;99.90
22224;DHT22;11281;52.194;21.006;2023-07-31T18:34:11;19.50;99.90
22224;DHT22;11281;52.194;21.006;2023-07-31T18:38:33;19.20;99.90
22224;DHT22;11281;52.194;21.006;2023-07-31T18:42:55;19.00;99.90
22224;DHT22;11281;52.194;21.006;2023-07-31T18:47:18;18.70;99.90
22224;DHT22;11281;52.194;21.006;2023-07-31T18:51:39;18.50;99.90
22224;DHT22;11281;52.194;21.006;2023-07-31T18:56:01;18.20;99.90
22224;DHT22;11281;52.194;21.006;2023-07-31T19:00:23;18.00;99.90
22224;DHT22;11281;52.194;21.006;2023-07-31T19:04:45;17.80;99.90
22224;DHT22;11281;52.194;21.006;2023-07-31T19:09:09;17.60;99.90
22224;DHT22;11281;52.194;21.006;2023-07-31T19:13:31;17.40;99.90
22224;DHT22;11281;52.194;21.006;2023-07-31T19:17:53;17.20;99.90
22224;DHT22;11281;52.194;21.006;2023-07-31T19:22:15;17.20;99.90
22224;DHT22;11281;52.194;21.006;2023-07-31T19:26:36;17.10;99.90
22224;DHT22;11281;52.194;21.006;2023-07-31T19:30:58;16.90;99.90
22224;DHT22;11281;52.194;21.006;2023-07-31T19:35:22;16.80;99.90
22224;DHT22;11281;52.194;21.006;2023-07-31T19:39:47;16.70;99.90
22224;DHT22;11281;52.194;21.006;2023-07-31T19:44:09;16.60;99.90
22224;DHT22;11281;52.194;21.006;2023-07-31T19:48:31;16.60;99.90
22224;DHT22;11281;52.194;21.006;2023-07-31T19:52:53;16.50;99.90
22224;DHT22;11281;52.194;21.006;2023-07-31T19:57:14;16.60;99.90
22224;DHT22;11281;52.194;21.006;2023-07-31T20:01:36;16.70;99.90
22224;DHT22;11281;52.194;21.006;2023-07-31T20:05:58;16.70;99.90
22224;DHT22;11281;52.194;21.006;2023-07-31T20:10:19;16.80;99.90
22224;DHT22;11281;52.194;21.006;2023-07-31T20:14:41;16.80;99.90
22224;DHT22;11281;52.194;21.006;2023-07-31T20:19:03;16.90;99.90
22224;DHT22;11281;52.194;21.006;2023-07-31T20:23:25;16.90;99.90
22224;DHT22;11281;52.194;21.006;2023-07-31T20:27:46;16.90;99.90
22224;DHT22;11281;52.194;21.006;2023-07-31T20:32:08;16.90;99.90
22224;DHT22;11281;52.194;21.006;2023-07-31T20:36:30;16.90;99.90
22224;DHT22;11281;52.194;21.006;2023-07-31T20:40:51;17.00;99.90
22224;DHT22;11281;52.194;21.006;2023-07-31T20:45:13;17.00;99.90
22224;DHT22;11281;52.194;21.006;2023-07-31T20:49:35;17.00;99.90
22224;DHT22;11281;52.194;21.006;2023-07-31T20:53:57;17.00;99.90
22224;DHT22;11281;52.194;21.006;2023-07-31T20:58:19;17.10;99.90
22224;DHT22;11281;52.194;21.006;2023-07-31T21:02:41;17.10;99.90
22224;DHT22;11281;52.194;21.006;2023-07-31T21:07:03;17.20;99.90
22224;DHT22;11281;52.194;21.006;2023-07-31T21:11:24;17.20;99.90
22224;DHT22;11281;52.194;21.006;2023-07-31T21:15:46;17.20;99.90
22224;DHT22;11281;52.194;21.006;2023-07-31T21:20:08;17.30;99.90
22224;DHT22;11281;52.194;21.006;2023-07-31T21:24:30;17.30;99.90
22224;DHT22;11281;52.194;21.006;2023-07-31T21:28:52;17.20;99.90
22224;DHT22;11281;52.194;21.006;2023-07-31T21:33:13;17.30;99.90
22224;DHT22;11281;52.194;21.006;2023-07-31T21:37:35;17.20;99.90
22224;DHT22;11281;52.194;21.006;2023-07-31T21:41:57;17.20;99.90
22224;DHT22;11281;52.194;21.006;2023-07-31T21:46:19;17.20;99.90
22224;DHT22;11281;52.194;21.006;2023-07-31T21:50:42;17.10;99.90
22224;DHT22;11281;52.194;21.006;2023-07-31T21:55:04;17.00;99.90
22224;DHT22;11281;52.194;21.006;2023-07-31T21:59:26;16.90;99.90
22224;DHT22;11281;52.194;21.006;2023-07-31T22:03:48;16.80;99.90
22224;DHT22;11281;52.194;21.006;2023-07-31T22:08:10;16.70;99.90
22224;DHT22;11281;52.194;21.006;2023-07-31T22:12:31;16.60;99.90
22224;DHT22;11281;52.194;21.006;2023-07-31T22:16:54;16.50;99.90
22224;DHT22;11281;52.194;21.006;2023-07-31T22:21:15;16.40;99.90
22224;DHT22;11281;52.194;21.006;2023-07-31T22:25:39;16.40;99.90
22224;DHT22;11281;52.194;21.006;2023-07-31T22:30:01;16.30;99.90
22224;DHT22;11281;52.194;21.006;2023-07-31T22:34:23;16.20;99.90
22224;DHT22;11281;52.194;21.006;2023-07-31T22:38:44;16.20;99.90
22224;DHT22;11281;52.194;21.006;2023-07-31T22:43:06;16.20;99.90
22224;DHT22;11281;52.194;21.006;2023-07-31T22:47:28;16.30;99.90
22224;DHT22;11281;52.194;21.006;2023-07-31T22:51:50;16.20;99.90
22224;DHT22;11281;52.194;21.006;2023-07-31T22:56:11;16.40;99.90
22224;DHT22;11281;52.194;21.006;2023-07-31T23:00:33;16.50;99.90
22224;DHT22;11281;52.194;21.006;2023-07-31T23:04:55;16.60;99.90
22224;DHT22;11281;52.194;21.006;2023-07-31T23:09:16;16.60;99.90
22224;DHT22;11281;52.194;21.006;2023-07-31T23:13:38;16.70;99.90
22224;DHT22;11281;52.194;21.006;2023-07-31T23:18:00;16.80;99.90
22224;DHT22;11281;52.194;21.006;2023-07-31T23:22:21;16.90;99.90
22224;DHT22;11281;52.194;21.006;2023-07-31T23:26:43;16.90;99.90
22224;DHT22;11281;52.194;21.006;2023-07-31T23:31:05;17.00;99.90
22224;DHT22;11281;52.194;21.006;2023-07-31T23:35:30;17.00;99.90
22224;DHT22;11281;52.194;21.006;2023-07-31T23:39:51;17.00;99.90
22224;DHT22;11281;52.194;21.006;2023-07-31T23:44:14;17.10;99.90
22224;DHT22;11281;52.194;21.006;2023-07-31T23:48:35;17.10;99.90
22224;DHT22;11281;52.194;21.006;2023-07-31T23:52:57;17.10;99.90
22224;DHT22;11281;52.194;21.006;2023-07-31T23:57:19;17.10;99.90
